Wichita, KS (67206)

9:28 AM CST on January 21, 2017 (GMT -0600)
Central and Rock | | Change Station

Elev 1375 ft 37.69 °N, 97.24 °W | Updated 10 seconds ago

Clear
Clear
36.7 °F
Feels Like 37 °F
N
0.0
Wind Variable Wind from SSE
Gusts 0.0 mph

Today
High -- | Low -- °F
--% Chance of Precip.
Yesterday
High -- | Low -- °F
Precip. -- in
Pressure 29.57 in
Visibility 10.0 miles
Clouds Clear
Windchill 37 °F
Dew Point 10 °F
Humidity 33%
Rainfall 0.00 in
Snow Depth Not available.
7:40 AM 5:40 PM
Waning Crescent, 34% visible
METAR KAAO 211454Z AUTO 17004KT 10SM CLR 02/02 A2954 RMK AO2 SLP011 T00220017 53022
Pressure 29.57 in
Visibility 10.0 miles
Clouds Clear
Windchill 37 °F
Dew Point 10 °F
Humidity 33%
Rainfall 0.00 in
Snow Depth Not available.
7:40 AM 5:40 PM
Waning Crescent, 34% visible
METAR KAAO 211454Z AUTO 17004KT 10SM CLR 02/02 A2954 RMK AO2 SLP011 T00220017 53022

Get Your Daily Forecast Email!

Thanks for signing up!

Be on the lookout for a verification email in your inbox.

You'll start receiving the daily forecast at 8 AM.

×

10-Day Weather Forecast

Almanac

Astronomy

Jan. 21, 2017 Rise Set
Actual Time
Civil Twilight
Nautical Twilight
Astronomical Twilight
Moon
Length of Visible Light
Length of Day
Tomorrow will be .
, % of the Moon is Illuminated

Today's Extremes

State Highs State Lows

Community

WunderPhotos

Upload Photos

1,962,540 photos uploaded!

WunderBlog® & News

Nearby

Air Quality

  Air Quality AQ Index Pollutant
Not available.

Snow Depth

Station Depth Elevation

Earthquake Activity

City Distance Mag. Time & Date
Minimum magnitude displayed is 2.5.

Coastal Water Temperatures

Place Temperature

Stations

Nearby Weather Stations

Station Location Temp. Windchill Dew Point Humidity Wind Precip. Elev Updated Type
                   

Watches & Warnings

There are currently no watches in effect.